Time;durP1;ratioP1;P1;durP2;ratioP2;P2;SDS_P1;SDS_P2;PMS_P1;PMS_P2;Temp;Humidity;BMP_temperature;BMP_pressure;BME280_temperature;BME280_humidity;BME280_pressure;Samples;Min_cycle;Max_cycle;Signal;HPM_P1;HPM_P2
2022/10/15 00:01:22;;;;;;;3.03;1.10;;;20.50;54.90;;;;;;5029283;28;20352;-60
2022/10/15 00:03:50;;;;;;;3.80;1.10;;;20.50;55.00;;;;;;5029301;28;20082;-60
2022/10/15 00:06:20;;;;;;;3.75;0.88;;;20.50;54.70;;;;;;5031714;28;20204;-60
2022/10/15 00:08:48;;;;;;;4.25;1.08;;;20.50;55.40;;;;;;5050101;28;20025;-60
2022/10/15 00:11:24;;;;;;;3.08;0.90;;;20.50;54.50;;;;;;5049911;28;20387;-60
2022/10/15 00:13:54;;;;;;;3.03;1.15;;;20.50;54.40;;;;;;5049714;28;20029;-60
2022/10/15 00:16:24;;;;;;;5.85;1.25;;;20.50;54.00;;;;;;5064392;28;20067;-60
2022/10/15 00:18:56;;;;;;;4.53;1.10;;;20.50;53.90;;;;;;5064677;28;20024;-60
2022/10/15 00:21:26;;;;;;;2.70;1.00;;;20.60;54.00;;;;;;5038515;28;20040;-60
2022/10/15 00:23:54;;;;;;;2.00;0.88;;;20.50;54.00;;;;;;5029490;28;20071;-60
2022/10/15 00:26:25;;;;;;;3.80;0.88;;;20.50;53.60;;;;;;5029656;28;20064;-60
2022/10/15 00:28:57;;;;;;;3.55;1.02;;;20.60;53.90;;;;;;5029686;28;20483;-60
2022/10/15 00:31:27;;;;;;;4.00;1.20;;;20.60;53.70;;;;;;5029240;28;20055;-60
2022/10/15 00:33:57;;;;;;;2.90;0.88;;;20.60;53.70;;;;;;5044476;28;20064;-61
2022/10/15 00:36:29;;;;;;;2.95;0.95;;;20.60;53.70;;;;;;5029848;28;20078;-60
2022/10/15 00:38:57;;;;;;;3.47;1.15;;;20.60;53.60;;;;;;5044830;28;20499;-61
2022/10/15 00:41:33;;;;;;;3.80;1.20;;;20.60;53.60;;;;;;5044804;28;20045;-60
2022/10/15 00:44:29;;;;;;;2.97;0.98;;;20.60;52.90;;;;;;5044844;28;20041;-60
2022/10/15 00:47:16;;;;;;;5.25;1.20;;;20.60;52.90;;;;;;5043939;28;20049;-61
2022/10/15 00:50:12;;;;;;;2.05;0.80;;;20.60;52.50;;;;;;5045228;28;20036;-60
2022/10/15 00:53:05;;;;;;;3.50;1.08;;;20.60;53.20;;;;;;5040387;28;20049;-60
2022/10/15 00:55:34;;;;;;;;;;;20.60;53.20;;;;;;5028533;28;20488;-60
2022/10/15 00:58:12;;;;;;;4.88;0.90;;;20.60;53.10;;;;;;5047933;28;19936;-60
2022/10/15 01:00:42;;;;;;;2.45;0.85;;;20.60;53.30;;;;;;5048849;28;20108;-60
2022/10/15 01:03:11;;;;;;;3.15;0.82;;;20.60;53.10;;;;;;5047552;28;20468;-60
2022/10/15 01:05:40;;;;;;;2.40;0.90;;;20.60;53.00;;;;;;5048402;28;20076;-60
2022/10/15 01:08:12;;;;;;;3.17;0.95;;;20.60;53.20;;;;;;5049427;28;20104;-60
2022/10/15 01:10:55;;;;;;;2.17;0.75;;;20.60;53.10;;;;;;5066527;28;20037;-60
2022/10/15 01:13:38;;;;;;;3.70;0.93;;;20.60;53.00;;;;;;5053057;28;20089;-60
2022/10/15 01:16:28;;;;;;;2.33;0.80;;;20.60;52.90;;;;;;5067611;28;20452;-60
2022/10/15 01:19:24;;;;;;;3.92;1.02;;;20.60;53.00;;;;;;5067751;28;20040;-60
2022/10/15 01:22:26;;;;;;;5.60;0.98;;;20.60;52.90;;;;;;5033616;28;20029;-60
2022/10/15 01:25:16;;;;;;;2.45;0.80;;;20.70;53.00;;;;;;5026345;28;20056;-60
2022/10/15 01:28:07;;;;;;;3.35;1.05;;;20.70;52.90;;;;;;5048382;28;20032;-60
2022/10/15 01:30:41;;;;;;;3.60;0.88;;;20.70;53.00;;;;;;5047829;28;20033;-60
2022/10/15 01:33:10;;;;;;;3.95;0.90;;;20.70;53.00;;;;;;5052230;28;20029;-60
2022/10/15 01:35:52;;;;;;;3.55;0.95;;;20.70;53.10;;;;;;5034465;28;20036;-60
2022/10/15 01:38:37;;;;;;;3.17;0.85;;;20.70;53.10;;;;;;5051102;28;20485;-60
2022/10/15 01:41:33;;;;;;;3.25;0.95;;;20.70;53.20;;;;;;5050949;28;20139;-60
2022/10/15 01:44:12;;;;;;;4.13;1.00;;;20.70;53.20;;;;;;5050767;28;20037;-60
2022/10/15 01:47:10;;;;;;;4.13;0.98;;;20.70;53.20;;;;;;5050880;28;20032;-61
2022/10/15 01:49:41;;;;;;;;;;;20.70;53.30;;;;;;5047742;28;20064;-60
2022/10/15 01:52:14;;;;;;;4.47;1.02;;;20.80;53.30;;;;;;5030832;28;19915;-60
2022/10/15 01:54:46;;;;;;;3.45;1.00;;;20.80;53.50;;;;;;5032444;28;20345;-60
2022/10/15 01:57:17;;;;;;;3.97;0.90;;;20.70;53.70;;;;;;5030614;28;20045;-60
2022/10/15 01:59:46;;;;;;;4.13;1.20;;;20.80;54.20;;;;;;5031008;28;20064;-60
2022/10/15 02:02:16;;;;;;;2.83;0.93;;;20.80;54.10;;;;;;5022955;28;20033;-60
2022/10/15 02:04:45;;;;;;;5.70;1.10;;;20.80;54.20;;;;;;5050646;28;20040;-60
2022/10/15 02:07:19;;;;;;;3.97;1.10;;;20.80;54.30;;;;;;5050873;28;20534;-60
2022/10/15 02:10:00;;;;;;;4.20;1.20;;;20.80;54.30;;;;;;5052436;28;20376;-60
2022/10/15 02:12:48;;;;;;;4.28;1.17;;;20.90;54.50;;;;;;5050392;28;20032;-60
2022/10/15 02:15:22;;;;;;;4.40;1.00;;;20.90;54.50;;;;;;5050355;28;20076;-61
2022/10/15 02:18:02;;;;;;;4.47;1.60;;;20.90;54.70;;;;;;5035327;28;20500;-60
2022/10/15 02:20:48;;;;;;;3.92;1.00;;;20.90;54.70;;;;;;5046892;28;20533;-60
2022/10/15 02:23:24;;;;;;;4.18;0.90;;;20.90;54.80;;;;;;5046802;28;20063;-61
2022/10/15 02:25:54;;;;;;;2.78;0.98;;;20.90;54.90;;;;;;5046593;28;20507;-60
2022/10/15 02:28:25;;;;;;;2.60;0.95;;;20.90;54.90;;;;;;5031593;28;20429;-61
2022/10/15 02:30:57;;;;;;;3.85;1.20;;;20.90;54.90;;;;;;5032131;28;20056;-60
2022/10/15 02:33:27;;;;;;;3.15;1.08;;;20.90;55.00;;;;;;5049647;28;20029;-60
2022/10/15 02:35:57;;;;;;;3.83;1.10;;;20.90;55.10;;;;;;5049910;28;20060;-60
2022/10/15 02:38:30;;;;;;;4.43;0.90;;;20.90;55.10;;;;;;5051320;28;20029;-60
2022/10/15 02:41:00;;;;;;;3.28;1.02;;;20.90;55.00;;;;;;5050084;28;20028;-61
2022/10/15 02:43:29;;;;;;;7.63;1.10;;;20.90;54.70;;;;;;5049589;28;20044;-60
2022/10/15 02:45:57;;;;;;;2.42;0.80;;;20.90;54.90;;;;;;5061395;28;20369;-60
2022/10/15 02:48:26;;;;;;;4.05;1.00;;;20.90;54.80;;;;;;5030749;28;20029;-61
2022/10/15 02:50:54;;;;;;;3.55;0.90;;;20.90;54.60;;;;;;5029942;28;20503;-60
2022/10/15 02:53:22;;;;;;;4.55;1.23;;;20.90;54.50;;;;;;5031138;28;20036;-61
2022/10/15 02:55:50;;;;;;;6.88;1.50;;;20.90;54.40;;;;;;5046878;28;20056;-61
2022/10/15 02:58:18;;;;;;;4.78;1.10;;;20.90;54.60;;;;;;5046473;28;20036;-61
2022/10/15 03:00:47;;;;;;;4.95;1.08;;;20.90;54.50;;;;;;5046338;28;20052;-62
2022/10/15 03:03:15;;;;;;;3.45;0.90;;;20.90;54.50;;;;;;5045997;28;20034;-62
2022/10/15 03:05:45;;;;;;;4.90;1.05;;;20.90;54.60;;;;;;5046151;28;20064;-61
2022/10/15 03:08:13;;;;;;;4.28;0.85;;;20.90;54.80;;;;;;5046593;28;20026;-61
2022/10/15 03:10:41;;;;;;;4.43;0.95;;;20.90;55.30;;;;;;5045969;28;20033;-61
2022/10/15 03:13:10;;;;;;;3.78;1.15;;;20.90;55.60;;;;;;5030993;28;20047;-61
2022/10/15 03:15:45;;;;;;;4.40;1.50;;;20.90;56.10;;;;;;5048475;28;20040;-61
2022/10/15 03:18:15;;;;;;;3.78;1.20;;;20.90;56.50;;;;;;5049032;28;20179;-61
2022/10/15 03:20:44;;;;;;;3.30;1.00;;;20.90;57.00;;;;;;5035112;28;20029;-62
2022/10/15 03:23:13;;;;;;;2.95;0.90;;;20.90;56.40;;;;;;5049103;28;20025;-61
2022/10/15 03:25:41;;;;;;;4.35;1.20;;;20.90;56.30;;;;;;5048759;28;20086;-61
2022/10/15 03:28:14;;;;;;;2.72;0.85;;;20.90;56.40;;;;;;5050352;28;20036;-61
2022/10/15 03:30:44;;;;;;;4.75;1.15;;;20.90;56.40;;;;;;5048544;28;20487;-61
2022/10/15 03:33:12;;;;;;;2.88;1.00;;;20.90;56.60;;;;;;5047971;28;20070;-61
2022/10/15 03:35:41;;;;;;;3.75;1.05;;;20.90;56.70;;;;;;5050176;28;20025;-61
2022/10/15 03:38:10;;;;;;;4.18;1.20;;;21.00;56.60;;;;;;5032335;28;20114;-61
2022/10/15 03:40:38;;;;;;;2.50;0.77;;;21.00;56.50;;;;;;5050154;28;20082;-61
2022/10/15 03:43:26;;;;;;;3.25;0.90;;;21.00;56.60;;;;;;5041445;28;20037;-61
2022/10/15 03:46:05;;;;;;;5.80;1.15;;;21.00;56.90;;;;;;5049050;28;20055;-61
2022/10/15 03:48:38;;;;;;;3.47;1.00;;;21.00;56.80;;;;;;5044575;28;20029;-61
2022/10/15 03:51:07;;;;;;;3.47;1.00;;;21.00;56.70;;;;;;5030212;28;20120;-61
2022/10/15 03:53:35;;;;;;;3.55;1.00;;;21.00;56.90;;;;;;5045064;28;20527;-61
2022/10/15 03:56:06;;;;;;;6.28;1.02;;;21.00;56.90;;;;;;5045130;28;20034;-61
2022/10/15 03:58:38;;;;;;;4.28;1.00;;;21.00;57.00;;;;;;5028321;28;20033;-61
2022/10/15 04:01:13;;;;;;;3.92;1.00;;;21.00;57.00;;;;;;5028141;28;20051;-61
2022/10/15 04:03:42;;;;;;;5.15;0.88;;;21.00;57.40;;;;;;5059930;28;20392;-61
2022/10/15 04:06:10;;;;;;;5.40;1.10;;;21.00;57.70;;;;;;5029997;28;20042;-61
2022/10/15 04:08:39;;;;;;;5.03;1.00;;;21.00;57.90;;;;;;5044917;28;20029;-61
2022/10/15 04:11:27;;;;;;;4.45;1.00;;;21.00;58.00;;;;;;5029229;28;20430;-61
2022/10/15 04:14:02;;;;;;;5.10;1.33;;;21.00;58.00;;;;;;5028201;28;20508;-62
2022/10/15 04:16:33;;;;;;;4.63;1.30;;;21.00;58.10;;;;;;5012043;28;20029;-62
2022/10/15 04:19:11;;;;;;;3.95;0.95;;;21.00;58.50;;;;;;5028077;28;20125;-61
2022/10/15 04:21:42;;;;;;;3.40;0.98;;;21.00;58.30;;;;;;5028253;28;20029;-61
2022/10/15 04:24:21;;;;;;;3.78;0.98;;;21.00;58.10;;;;;;5029863;28;20116;-61
2022/10/15 04:26:49;;;;;;;3.25;0.95;;;21.00;58.20;;;;;;5028550;28;20033;-62
2022/10/15 04:29:17;;;;;;;4.05;0.95;;;20.90;58.30;;;;;;5029998;28;20045;-62
2022/10/15 04:31:46;;;;;;;5.53;1.17;;;21.00;58.30;;;;;;5028154;28;20136;-62
2022/10/15 04:34:14;;;;;;;7.18;1.40;;;21.00;58.30;;;;;;5032642;28;20053;-61
2022/10/15 04:36:43;;;;;;;3.45;1.08;;;21.00;58.30;;;;;;5028078;28;20026;-61
2022/10/15 04:39:20;;;;;;;3.65;0.90;;;21.00;57.80;;;;;;5028562;28;20388;-61
2022/10/15 04:41:48;;;;;;;4.88;1.13;;;21.00;57.70;;;;;;5028317;28;20053;-61
2022/10/15 04:44:26;;;;;;;3.45;1.15;;;21.00;57.70;;;;;;5044654;28;20129;-61
2022/10/15 04:46:58;;;;;;;2.30;0.85;;;21.00;57.70;;;;;;5031135;28;20484;-61
2022/10/15 04:49:41;;;;;;;4.80;1.10;;;21.00;57.90;;;;;;5046071;28;20037;-61
2022/10/15 04:52:27;;;;;;;2.90;1.05;;;21.00;57.90;;;;;;5051785;28;20029;-61
2022/10/15 04:54:58;;;;;;;4.35;1.10;;;21.10;58.20;;;;;;5052300;28;20547;-61
2022/10/15 04:57:26;;;;;;;2.50;0.95;;;21.10;58.60;;;;;;5051703;28;20049;-62
2022/10/15 04:59:54;;;;;;;3.40;0.85;;;21.10;58.70;;;;;;5035036;28;20025;-61
2022/10/15 05:02:43;;;;;;;3.88;1.00;;;21.10;59.20;;;;;;5030790;28;20508;-61
2022/10/15 05:05:21;;;;;;;3.63;0.90;;;21.10;59.60;;;;;;5050548;28;20051;-61
2022/10/15 05:08:07;;;;;;;3.63;1.02;;;21.10;59.80;;;;;;5048599;28;20040;-62
2022/10/15 05:10:59;;;;;;;3.05;0.90;;;21.10;60.00;;;;;;5045535;28;20491;-61
2022/10/15 05:13:30;;;;;;;3.72;1.10;;;21.10;60.00;;;;;;5047966;28;20498;-62
2022/10/15 05:16:08;;;;;;;3.78;0.95;;;21.10;60.20;;;;;;5047779;28;20052;-62
2022/10/15 05:18:36;;;;;;;4.38;1.00;;;21.10;60.30;;;;;;5047839;28;20096;-62
2022/10/15 05:21:04;;;;;;;3.15;1.30;;;21.10;60.30;;;;;;5053329;28;20030;-60
2022/10/15 05:23:35;;;;;;;3.90;1.00;;;21.10;60.20;;;;;;5059027;28;20453;-61
2022/10/15 05:26:17;;;;;;;5.50;1.20;;;21.10;60.50;;;;;;5048033;28;20045;-60
2022/10/15 05:28:46;;;;;;;3.95;1.10;;;21.10;60.80;;;;;;5049102;28;20121;-60
2022/10/15 05:31:25;;;;;;;4.18;0.80;;;21.10;61.00;;;;;;5047664;28;20037;-61
2022/10/15 05:34:07;;;;;;;4.55;1.10;;;21.10;61.20;;;;;;5047587;28;20026;-60
2022/10/15 05:36:45;;;;;;;2.42;0.82;;;21.10;61.60;;;;;;5054396;28;20096;-60
2022/10/15 05:39:15;;;;;;;4.13;1.10;;;21.10;61.50;;;;;;5032026;28;20487;-60
2022/10/15 05:41:45;;;;;;;5.18;1.00;;;21.20;61.70;;;;;;5053595;28;20128;-60
2022/10/15 05:44:14;;;;;;;4.03;1.08;;;21.20;62.10;;;;;;5048652;28;20036;-60
2022/10/15 05:46:42;;;;;;;2.78;1.00;;;21.20;62.10;;;;;;5056509;28;20039;-60
2022/10/15 05:49:18;;;;;;;5.28;1.13;;;21.20;62.00;;;;;;5044213;28;20028;-60
2022/10/15 05:51:53;;;;;;;7.72;1.50;;;21.20;62.40;;;;;;5063750;28;20050;-60
2022/10/15 05:54:38;;;;;;;2.90;0.90;;;21.20;62.90;;;;;;5035893;28;20033;-60
2022/10/15 05:57:06;;;;;;;8.07;1.40;;;21.20;63.50;;;;;;5045738;28;20540;-60
2022/10/15 05:59:34;;;;;;;4.78;1.10;;;21.20;64.10;;;;;;5030348;28;20025;-61
2022/10/15 06:02:02;;;;;;;6.65;1.50;;;21.30;64.40;;;;;;5030979;28;20025;-61
2022/10/15 06:04:31;;;;;;;4.88;1.13;;;21.30;64.10;;;;;;5038633;28;20021;-61
2022/10/15 06:06:59;;;;;;;5.65;1.10;;;21.30;63.60;;;;;;5031655;28;20049;-61
2022/10/15 06:09:28;;;;;;;7.32;1.30;;;21.30;63.40;;;;;;5032123;28;20060;-61
2022/10/15 06:11:56;;;;;;;4.45;1.13;;;21.30;63.40;;;;;;5029957;28;20036;-61
2022/10/15 06:14:25;;;;;;;4.25;1.00;;;21.40;63.50;;;;;;5031678;28;20029;-61
2022/10/15 06:16:54;;;;;;;5.40;1.20;;;21.40;62.40;;;;;;5030941;28;20425;-61
2022/10/15 06:19:22;;;;;;;4.75;1.08;;;21.40;61.70;;;;;;5031660;28;20116;-60
2022/10/15 06:21:50;;;;;;;3.08;1.00;;;21.40;61.90;;;;;;5031529;28;20083;-61
2022/10/15 06:24:18;;;;;;;4.97;0.90;;;21.40;62.40;;;;;;5031644;28;20503;-60
2022/10/15 06:26:46;;;;;;;4.40;1.25;;;21.40;62.60;;;;;;5031823;28;20033;-60
2022/10/15 06:29:14;;;;;;;5.47;1.30;;;21.40;62.80;;;;;;5029845;28;20068;-61
2022/10/15 06:31:43;;;;;;;4.22;1.10;;;21.40;63.60;;;;;;5065307;28;20033;-61
2022/10/15 06:34:10;;;;;;;3.70;0.98;;;21.40;64.80;;;;;;5049870;28;20031;-61
2022/10/15 06:36:39;;;;;;;3.85;0.90;;;21.40;65.20;;;;;;5065890;28;20034;-60
2022/10/15 06:39:07;;;;;;;4.80;1.10;;;21.40;65.80;;;;;;5041922;28;20471;-59
2022/10/15 06:41:35;;;;;;;5.47;1.17;;;21.40;66.30;;;;;;5034194;28;20048;-61
2022/10/15 06:44:04;;;;;;;7.00;1.00;;;21.40;65.90;;;;;;5049370;28;20025;-60
2022/10/15 06:46:33;;;;;;;6.55;1.33;;;21.50;65.70;;;;;;5036251;28;20086;-58
2022/10/15 06:49:01;;;;;;;4.88;1.27;;;21.50;65.90;;;;;;5028935;28;20032;-66
2022/10/15 06:51:29;;;;;;;4.85;1.25;;;21.50;66.60;;;;;;5032655;28;20128;-59
2022/10/15 06:53:58;;;;;;;5.47;1.48;;;21.50;67.40;;;;;;5037964;28;20025;-59
2022/10/15 06:56:26;;;;;;;8.68;1.67;;;21.50;67.60;;;;;;5043609;28;20013;-58
2022/10/15 06:58:54;;;;;;;7.55;1.27;;;21.50;67.40;;;;;;5034045;28;20033;-58
2022/10/15 07:01:23;;;;;;;9.95;1.33;;;21.60;67.50;;;;;;5030140;28;20055;-58
2022/10/15 07:03:51;;;;;;;5.13;1.40;;;21.50;67.00;;;;;;5037196;28;20020;-59
2022/10/15 07:06:20;;;;;;;4.20;1.23;;;21.50;67.00;;;;;;5050203;28;20103;-59
2022/10/15 07:08:48;;;;;;;6.07;1.48;;;21.50;67.10;;;;;;5048530;28;20093;-60
2022/10/15 07:11:17;;;;;;;5.97;1.25;;;21.50;67.10;;;;;;5049401;28;20021;-58
2022/10/15 07:13:45;;;;;;;6.15;1.50;;;21.50;67.20;;;;;;5045170;28;20484;-60
2022/10/15 07:16:13;;;;;;;5.40;1.20;;;21.50;67.30;;;;;;5029971;28;20053;-60
2022/10/15 07:18:41;;;;;;;7.07;1.38;;;21.50;67.50;;;;;;5042488;28;20021;-60
2022/10/15 07:21:10;;;;;;;6.85;1.40;;;21.40;67.70;;;;;;5037965;28;20206;-59
2022/10/15 07:23:38;;;;;;;5.88;1.40;;;21.40;67.80;;;;;;5036230;28;20029;-59
2022/10/15 07:26:07;;;;;;;4.53;1.30;;;21.40;67.80;;;;;;5049249;28;20033;-59
2022/10/15 07:28:35;;;;;;;9.07;1.50;;;21.40;67.60;;;;;;5046776;28;20025;-59
2022/10/15 07:31:06;;;;;;;5.75;1.55;;;21.40;67.90;;;;;;5046143;28;20099;-59
2022/10/15 07:33:35;;;;;;;6.72;1.20;;;21.40;67.80;;;;;;5049013;28;20025;-59
2022/10/15 07:36:09;;;;;;;7.47;1.38;;;21.30;67.60;;;;;;5049478;28;20104;-59
2022/10/15 07:38:38;;;;;;;5.50;1.48;;;21.30;67.60;;;;;;5047336;28;20420;-59
2022/10/15 07:41:08;;;;;;;4.97;1.20;;;21.30;67.60;;;;;;5043009;28;20036;-59
2022/10/15 07:43:43;;;;;;;5.45;1.20;;;21.30;67.50;;;;;;5050073;28;20499;-60
2022/10/15 07:46:12;;;;;;;4.07;1.20;;;21.30;68.00;;;;;;5043336;28;20064;-59
2022/10/15 07:48:41;;;;;;;5.90;1.45;;;21.30;68.20;;;;;;5040532;28;20519;-60
2022/10/15 07:51:11;;;;;;;5.63;1.40;;;21.30;68.40;;;;;;5036704;28;20039;-60
2022/10/15 07:53:39;;;;;;;4.75;1.15;;;21.30;68.60;;;;;;5029467;28;20101;-60
2022/10/15 07:56:10;;;;;;;5.63;1.33;;;21.30;68.50;;;;;;5032174;28;20108;-62
2022/10/15 07:58:39;;;;;;;6.43;2.08;;;21.30;69.20;;;;;;5029833;28;20068;-59
2022/10/15 08:01:09;;;;;;;6.70;1.40;;;21.30;69.30;;;;;;5044462;28;20032;-59
2022/10/15 08:03:38;;;;;;;5.63;1.20;;;21.30;69.20;;;;;;5030316;28;20087;-58
2022/10/15 08:06:07;;;;;;;5.20;1.15;;;21.20;69.40;;;;;;5029446;28;20116;-59
2022/10/15 08:08:36;;;;;;;6.10;1.65;;;21.30;69.00;;;;;;5033783;28;20364;-58
2022/10/15 08:11:12;;;;;;;5.28;1.80;;;21.30;69.60;;;;;;5030909;28;20057;-59
2022/10/15 08:13:42;;;;;;;4.97;1.30;;;21.20;69.80;;;;;;5039426;28;20159;-59
2022/10/15 08:16:11;;;;;;;5.57;1.30;;;21.20;69.60;;;;;;5042559;28;20132;-58
2022/10/15 08:18:40;;;;;;;5.28;1.50;;;21.20;69.20;;;;;;5040271;28;20044;-59
2022/10/15 08:21:10;;;;;;;5.32;1.63;;;21.20;69.40;;;;;;5044034;28;20116;-58
2022/10/15 08:23:38;;;;;;;7.07;1.40;;;21.20;69.50;;;;;;5048297;28;20021;-59
2022/10/15 08:26:09;;;;;;;5.93;1.52;;;21.20;69.70;;;;;;5040823;28;20047;-58
2022/10/15 08:28:38;;;;;;;8.00;1.52;;;21.20;69.90;;;;;;5034965;28;20506;-59
2022/10/15 08:31:06;;;;;;;4.95;1.40;;;21.20;69.90;;;;;;5049274;28;20052;-57
2022/10/15 08:33:36;;;;;;;8.60;2.20;;;21.20;70.00;;;;;;5028901;28;20034;-58
2022/10/15 08:36:07;;;;;;;5.68;1.50;;;21.10;70.00;;;;;;5032595;28;20443;-59
2022/10/15 08:38:36;;;;;;;8.57;1.55;;;21.20;70.20;;;;;;5034444;28;20329;-58
2022/10/15 08:41:15;;;;;;;7.75;1.50;;;21.20;70.10;;;;;;5064582;28;20357;-58
2022/10/15 08:43:47;;;;;;;6.65;1.65;;;21.20;70.20;;;;;;5057084;28;20041;-59
2022/10/15 08:46:41;;;;;;;5.72;1.40;;;21.20;70.40;;;;;;5044291;28;20580;-59
2022/10/15 08:49:55;;;;;;;4.53;1.40;;;21.10;70.40;;;;;;5049099;28;20034;-59
2022/10/15 08:52:39;;;;;;;5.63;1.65;;;21.10;70.50;;;;;;5038356;28;20087;-58
2022/10/15 08:55:19;;;;;;;6.40;1.67;;;21.10;70.60;;;;;;5039101;28;20030;-58
2022/10/15 08:58:03;;;;;;;5.80;1.48;;;21.10;70.70;;;;;;5029713;28;20128;-58
2022/10/15 09:00:42;;;;;;;7.60;1.85;;;21.10;70.90;;;;;;5044074;28;20041;-59
2022/10/15 09:03:20;;;;;;;8.75;1.65;;;21.10;70.80;;;;;;5030491;28;20092;-58
2022/10/15 09:06:20;;;;;;;5.80;1.60;;;21.10;70.90;;;;;;5047736;28;20082;-55
2022/10/15 09:09:02;;;;;;;6.43;1.80;;;21.10;71.00;;;;;;5029559;28;20044;-59
2022/10/15 09:12:00;;;;;;;6.95;1.70;;;21.10;71.40;;;;;;5037839;28;20048;-59
2022/10/15 09:14:33;;;;;;;5.05;1.48;;;21.10;71.30;;;;;;5047879;28;20029;-59
2022/10/15 09:17:23;;;;;;;5.72;1.42;;;21.10;71.20;;;;;;5048263;28;20025;-59
2022/10/15 09:19:55;;;;;;;8.05;1.98;;;21.10;71.40;;;;;;5049186;28;20017;-59
2022/10/15 09:22:29;;;;;;;7.10;1.83;;;21.10;71.20;;;;;;5049191;28;20458;-59
2022/10/15 09:24:58;;;;;;;5.85;1.45;;;21.10;71.30;;;;;;5044395;28;20460;-59
2022/10/15 09:27:26;;;;;;;7.85;2.00;;;21.10;71.30;;;;;;5046774;28;20347;-59
2022/10/15 09:30:38;;;;;;;6.57;2.45;;;21.10;71.20;;;;;;5048922;28;20055;-59
2022/10/15 09:33:36;;;;;;;14.27;3.60;;;21.10;71.30;;;;;;5009768;28;20184;-58
2022/10/15 09:36:12;;;;;;;8.02;3.20;;;21.10;71.20;;;;;;5031410;28;20103;-59
2022/10/15 09:38:59;;;;;;;10.48;3.42;;;21.10;71.30;;;;;;5032432;28;20033;-59
2022/10/15 09:41:36;;;;;;;9.18;3.22;;;21.10;71.40;;;;;;5037684;28;20541;-59
2022/10/15 09:44:10;;;;;;;9.75;3.10;;;21.10;71.30;;;;;;5038678;28;20037;-58
2022/10/15 09:46:48;;;;;;;10.38;2.63;;;21.10;71.30;;;;;;5038712;28;20041;-59
2022/10/15 09:49:18;;;;;;;10.18;2.63;;;21.10;71.30;;;;;;5039360;28;20024;-59
2022/10/15 09:52:09;;;;;;;7.38;2.15;;;21.10;71.30;;;;;;5039398;28;20030;-60
2022/10/15 09:55:10;;;;;;;7.03;2.03;;;21.00;71.30;;;;;;5062770;28;20372;-58
2022/10/15 09:57:40;;;;;;;6.75;2.35;;;21.00;71.60;;;;;;5051652;28;20081;-56
2022/10/15 10:00:12;;;;;;;6.38;1.90;;;21.00;71.60;;;;;;5052012;28;20167;-56
2022/10/15 10:02:40;;;;;;;9.27;2.45;;;21.10;71.60;;;;;;5032065;28;20586;-57
2022/10/15 10:05:28;;;;;;;5.85;1.80;;;21.10;71.70;;;;;;5032048;28;20369;-57
2022/10/15 10:08:21;;;;;;;7.00;2.40;;;21.10;72.10;;;;;;5062205;28;20029;-58
2022/10/15 10:11:00;;;;;;;10.88;2.25;;;21.10;72.10;;;;;;5049064;28;20463;-58
2022/10/15 10:13:39;;;;;;;10.20;2.30;;;21.10;72.50;;;;;;5049789;28;20088;-58
2022/10/15 10:16:12;;;;;;;12.13;2.58;;;21.10;72.60;;;;;;5050025;28;20029;-58
2022/10/15 10:18:49;;;;;;;7.50;2.08;;;21.20;72.30;;;;;;5061649;28;20032;-58
2022/10/15 10:21:25;;;;;;;7.47;2.13;;;21.10;72.10;;;;;;5051998;28;20025;-58
2022/10/15 10:23:54;;;;;;;7.88;2.30;;;21.20;72.10;;;;;;5058354;28;20064;-59
2022/10/15 10:26:22;;;;;;;8.45;2.38;;;21.20;72.50;;;;;;5050706;28;20048;-58
2022/10/15 10:28:56;;;;;;;9.65;2.40;;;21.20;72.60;;;;;;5033300;28;20064;-59
2022/10/15 10:31:31;;;;;;;6.50;2.00;;;21.20;72.60;;;;;;5036163;28;20050;-58
2022/10/15 10:34:03;;;;;;;9.38;2.13;;;21.20;72.60;;;;;;5049685;28;20029;-58
2022/10/15 10:36:33;;;;;;;7.78;2.10;;;21.20;72.70;;;;;;5049918;28;20033;-58
2022/10/15 10:39:13;;;;;;;8.07;2.35;;;21.10;72.60;;;;;;5043840;28;20075;-58
2022/10/15 10:41:51;;;;;;;9.70;2.30;;;21.10;72.50;;;;;;5037676;28;20459;-58
2022/10/15 10:44:33;;;;;;;8.85;1.88;;;21.10;72.50;;;;;;5047457;28;20100;-58
2022/10/15 10:47:09;;;;;;;8.13;2.00;;;21.10;73.20;;;;;;5037599;28;20042;-58
2022/10/15 10:49:45;;;;;;;8.57;2.30;;;21.10;72.50;;;;;;5050065;28;20056;-59
2022/10/15 10:52:28;;;;;;;6.68;2.30;;;21.10;72.40;;;;;;5053618;28;20113;-59
2022/10/15 10:55:25;;;;;;;7.18;2.28;;;21.10;72.70;;;;;;5038136;28;20109;-59
2022/10/15 10:57:59;;;;;;;9.13;2.10;;;21.10;72.60;;;;;;5037355;28;20035;-59
2022/10/15 11:00:43;;;;;;;8.75;2.67;;;21.10;72.70;;;;;;5037826;28;20063;-59
2022/10/15 11:03:34;;;;;;;8.57;2.30;;;21.10;72.60;;;;;;5030504;28;20018;-59
2022/10/15 11:06:17;;;;;;;8.20;1.98;;;21.10;72.60;;;;;;5021957;28;20110;-59
2022/10/15 11:09:23;;;;;;;7.43;1.75;;;21.10;72.50;;;;;;5031367;28;20029;-58
2022/10/15 11:12:07;;;;;;;7.63;1.58;;;21.10;72.50;;;;;;5039788;28;20025;-59
2022/10/15 11:15:11;;;;;;;6.90;1.90;;;21.10;72.40;;;;;;5035116;28;20052;-59
2022/10/15 11:18:07;;;;;;;7.70;2.25;;;21.20;73.10;;;;;;5052450;28;20063;-59
2022/10/15 11:21:17;;;;;;;6.95;1.85;;;21.20;72.50;;;;;;5049047;28;20033;-59
2022/10/15 11:24:14;;;;;;;11.27;2.20;;;21.20;72.50;;;;;;4994701;28;20058;-59
2022/10/15 11:27:25;;;;;;;5.55;1.60;;;21.20;72.70;;;;;;5059010;28;20484;-59
2022/10/15 11:30:16;;;;;;;6.38;1.73;;;21.20;72.50;;;;;;5037414;28;20092;-59
2022/10/15 11:33:25;;;;;;;6.25;1.85;;;21.20;72.60;;;;;;5045102;28;20468;-59
2022/10/15 11:36:07;;;;;;;5.30;1.80;;;21.10;72.40;;;;;;5045049;28;20483;-58
2022/10/15 11:39:00;;;;;;;5.63;1.55;;;21.10;72.50;;;;;;5039236;28;20518;-59
2022/10/15 11:41:53;;;;;;;7.55;1.73;;;21.10;72.60;;;;;;5048425;28;20043;-58
2022/10/15 11:44:43;;;;;;;5.80;1.73;;;21.10;72.60;;;;;;5040488;28;20090;-58
2022/10/15 11:47:36;;;;;;;9.10;2.08;;;21.10;72.70;;;;;;5032915;28;20048;-59
2022/10/15 11:50:21;;;;;;;;;;;21.20;72.70;;;;;;5038509;28;20026;-58
2022/10/15 11:52:59;;;;;;;4.47;1.42;;;21.10;72.80;;;;;;5030479;28;19971;-59
2022/10/15 11:55:50;;;;;;;6.50;1.60;;;21.10;72.90;;;;;;5039505;28;20068;-59
2022/10/15 11:58:43;;;;;;;6.45;1.50;;;21.10;73.00;;;;;;5049102;28;20423;-59
2022/10/15 12:01:49;;;;;;;7.55;1.60;;;21.10;73.10;;;;;;5049584;28;20029;-58
2022/10/15 12:04:29;;;;;;;5.40;1.63;;;21.10;73.20;;;;;;4969027;28;20058;-59
2022/10/15 12:07:01;;;;;;;4.78;1.60;;;21.10;73.80;;;;;;5030063;28;20099;-59
2022/10/15 12:09:38;;;;;;;5.53;1.50;;;21.10;73.30;;;;;;5033340;28;20021;-59
2022/10/15 12:12:33;;;;;;;9.80;2.17;;;21.10;73.00;;;;;;5060168;28;20035;-59
2022/10/15 12:15:31;;;;;;;8.40;1.80;;;21.10;72.90;;;;;;5045846;28;20484;-59
2022/10/15 12:18:21;;;;;;;8.02;1.77;;;21.20;73.10;;;;;;5041882;28;20039;-59
2022/10/15 12:20:54;;;;;;;5.15;1.50;;;21.20;73.10;;;;;;5045190;28;20036;-59
2022/10/15 12:23:23;;;;;;;;;;;21.20;73.00;;;;;;5045612;28;20506;-59
2022/10/15 12:25:51;;;;;;;9.40;1.83;;;21.10;72.80;;;;;;5035174;28;20414;-59
2022/10/15 12:28:21;;;;;;;5.22;1.48;;;21.10;73.10;;;;;;5031214;28;20546;-59
2022/10/15 12:31:22;;;;;;;7.05;1.60;;;21.10;72.90;;;;;;5049675;28;20032;-59
2022/10/15 12:33:56;;;;;;;7.70;1.60;;;21.10;73.00;;;;;;5028819;28;20041;-59
2022/10/15 12:36:30;;;;;;;7.20;1.65;;;21.20;73.30;;;;;;5030014;28;20329;-59
2022/10/15 12:39:00;;;;;;;8.60;1.67;;;21.10;73.50;;;;;;5055018;28;20029;-59
2022/10/15 12:41:46;;;;;;;8.20;1.40;;;21.10;73.50;;;;;;5035990;28;20040;-59
2022/10/15 12:44:23;;;;;;;5.25;1.50;;;21.10;73.50;;;;;;5046755;28;20055;-59
2022/10/15 12:46:52;;;;;;;5.75;1.50;;;21.10;73.70;;;;;;5046160;28;20396;-59
2022/10/15 12:49:30;;;;;;;5.13;1.73;;;21.10;73.80;;;;;;5049755;28;20017;-59
2022/10/15 12:52:01;;;;;;;7.00;1.52;;;21.10;73.70;;;;;;5047629;28;20426;-59
2022/10/15 12:54:33;;;;;;;7.03;1.65;;;21.10;73.80;;;;;;5049471;28;20063;-59
2022/10/15 12:57:03;;;;;;;4.78;1.45;;;21.10;73.80;;;;;;5049356;28;20021;-59
2022/10/15 12:59:44;;;;;;;4.18;1.20;;;21.10;73.80;;;;;;5044439;28;20112;-59
2022/10/15 13:02:44;;;;;;;5.00;1.50;;;21.10;73.90;;;;;;5053225;28;20722;-59
2022/10/15 13:05:34;;;;;;;5.35;1.40;;;21.10;73.70;;;;;;5044525;28;20038;-59
2022/10/15 13:08:10;;;;;;;5.22;1.40;;;21.10;73.60;;;;;;5042885;28;20508;-59
2022/10/15 13:10:52;;;;;;;5.47;1.60;;;21.10;73.70;;;;;;5033856;28;20033;-58
2022/10/15 13:13:30;;;;;;;7.20;1.50;;;21.10;73.50;;;;;;5046359;28;20061;-59
2022/10/15 13:16:09;;;;;;;5.20;1.35;;;21.10;73.50;;;;;;5048487;28;20607;-59
2022/10/15 13:18:38;;;;;;;4.53;1.35;;;21.10;73.60;;;;;;5047720;28;20053;-59
2022/10/15 13:21:06;;;;;;;8.15;1.60;;;21.20;73.60;;;;;;5036579;28;20033;-59
2022/10/15 13:23:35;;;;;;;4.63;1.27;;;21.20;73.30;;;;;;5048194;28;20030;-59
2022/10/15 13:26:17;;;;;;;6.72;1.50;;;21.10;73.50;;;;;;5051275;28;20142;-59
2022/10/15 13:28:51;;;;;;;6.57;1.77;;;21.10;73.30;;;;;;5038212;28;20368;-59
2022/10/15 13:31:30;;;;;;;5.20;1.50;;;21.20;73.50;;;;;;5039181;28;20061;-59
2022/10/15 13:34:25;;;;;;;6.40;1.55;;;21.10;73.10;;;;;;5062718;28;20467;-59